sensor_id;sensor_type;location;lat;lon;timestamp;P1;durP1;ratioP1;P2;durP2;ratioP2
1649;SDS011;822;53.670;8.676;2023-02-22T00:00:33;7.77;;;5.07;;
1649;SDS011;822;53.670;8.676;2023-02-22T00:03:08;6.70;;;4.93;;
1649;SDS011;822;53.670;8.676;2023-02-22T00:05:37;6.00;;;3.73;;
1649;SDS011;822;53.670;8.676;2023-02-22T00:08:04;7.30;;;4.60;;
1649;SDS011;822;53.670;8.676;2023-02-22T00:10:39;5.50;;;4.37;;
1649;SDS011;822;53.670;8.676;2023-02-22T00:13:06;9.80;;;4.77;;
1649;SDS011;822;53.670;8.676;2023-02-22T00:15:35;6.27;;;4.80;;
1649;SDS011;822;53.670;8.676;2023-02-22T00:18:05;11.70;;;6.37;;
1649;SDS011;822;53.670;8.676;2023-02-22T00:20:35;6.70;;;4.77;;
1649;SDS011;822;53.670;8.676;2023-02-22T00:23:03;12.23;;;7.00;;
1649;SDS011;822;53.670;8.676;2023-02-22T00:25:32;10.87;;;5.77;;
1649;SDS011;822;53.670;8.676;2023-02-22T00:28:01;12.67;;;6.17;;
1649;SDS011;822;53.670;8.676;2023-02-22T00:30:30;13.27;;;6.50;;
1649;SDS011;822;53.670;8.676;2023-02-22T00:32:57;9.97;;;6.70;;
1649;SDS011;822;53.670;8.676;2023-02-22T00:35:26;10.57;;;6.07;;
1649;SDS011;822;53.670;8.676;2023-02-22T00:37:54;10.63;;;7.00;;
1649;SDS011;822;53.670;8.676;2023-02-22T00:40:24;11.37;;;5.90;;
1649;SDS011;822;53.670;8.676;2023-02-22T00:42:52;13.30;;;6.20;;
1649;SDS011;822;53.670;8.676;2023-02-22T00:45:21;7.70;;;5.50;;
1649;SDS011;822;53.670;8.676;2023-02-22T00:47:50;12.73;;;6.30;;
1649;SDS011;822;53.670;8.676;2023-02-22T00:50:20;11.30;;;6.17;;
1649;SDS011;822;53.670;8.676;2023-02-22T00:52:48;10.97;;;5.60;;
1649;SDS011;822;53.670;8.676;2023-02-22T00:55:16;15.13;;;6.20;;
1649;SDS011;822;53.670;8.676;2023-02-22T00:57:44;12.70;;;6.10;;
1649;SDS011;822;53.670;8.676;2023-02-22T01:00:14;13.83;;;6.03;;
1649;SDS011;822;53.670;8.676;2023-02-22T01:02:45;14.73;;;8.40;;
1649;SDS011;822;53.670;8.676;2023-02-22T01:05:15;12.93;;;6.90;;
1649;SDS011;822;53.670;8.676;2023-02-22T01:07:47;15.53;;;8.20;;
1649;SDS011;822;53.670;8.676;2023-02-22T01:10:16;10.20;;;5.60;;
1649;SDS011;822;53.670;8.676;2023-02-22T01:12:44;15.33;;;9.00;;
1649;SDS011;822;53.670;8.676;2023-02-22T01:15:11;12.20;;;7.47;;
1649;SDS011;822;53.670;8.676;2023-02-22T01:17:39;12.00;;;6.27;;
1649;SDS011;822;53.670;8.676;2023-02-22T01:20:12;10.83;;;6.30;;
1649;SDS011;822;53.670;8.676;2023-02-22T01:22:39;13.17;;;7.57;;
1649;SDS011;822;53.670;8.676;2023-02-22T01:25:08;16.70;;;6.90;;
1649;SDS011;822;53.670;8.676;2023-02-22T01:27:36;15.30;;;6.67;;
1649;SDS011;822;53.670;8.676;2023-02-22T01:30:07;9.37;;;5.50;;
1649;SDS011;822;53.670;8.676;2023-02-22T01:32:36;12.93;;;6.63;;
1649;SDS011;822;53.670;8.676;2023-02-22T01:35:06;14.03;;;8.23;;
1649;SDS011;822;53.670;8.676;2023-02-22T01:37:39;11.90;;;6.80;;
1649;SDS011;822;53.670;8.676;2023-02-22T01:40:08;10.33;;;6.80;;
1649;SDS011;822;53.670;8.676;2023-02-22T01:42:41;9.13;;;6.20;;
1649;SDS011;822;53.670;8.676;2023-02-22T01:45:31;14.40;;;6.77;;
1649;SDS011;822;53.670;8.676;2023-02-22T01:48:10;14.70;;;6.90;;
1649;SDS011;822;53.670;8.676;2023-02-22T01:50:41;16.13;;;7.07;;
1649;SDS011;822;53.670;8.676;2023-02-22T01:53:15;11.30;;;7.63;;
1649;SDS011;822;53.670;8.676;2023-02-22T01:55:43;12.40;;;6.83;;
1649;SDS011;822;53.670;8.676;2023-02-22T01:58:12;10.90;;;6.00;;
1649;SDS011;822;53.670;8.676;2023-02-22T02:00:41;15.13;;;7.80;;
1649;SDS011;822;53.670;8.676;2023-02-22T02:03:10;12.53;;;8.40;;
1649;SDS011;822;53.670;8.676;2023-02-22T02:05:41;16.00;;;8.13;;
1649;SDS011;822;53.670;8.676;2023-02-22T02:08:23;13.77;;;6.70;;
1649;SDS011;822;53.670;8.676;2023-02-22T02:10:56;19.70;;;8.40;;
1649;SDS011;822;53.670;8.676;2023-02-22T02:13:24;15.80;;;8.53;;
1649;SDS011;822;53.670;8.676;2023-02-22T02:15:52;16.67;;;7.00;;
1649;SDS011;822;53.670;8.676;2023-02-22T02:18:20;13.70;;;7.23;;
1649;SDS011;822;53.670;8.676;2023-02-22T02:20:53;18.23;;;7.40;;
1649;SDS011;822;53.670;8.676;2023-02-22T02:26:57;12.07;;;7.07;;
1649;SDS011;822;53.670;8.676;2023-02-22T02:35:31;20.87;;;8.90;;
1649;SDS011;822;53.670;8.676;2023-02-22T02:38:09;16.93;;;7.63;;
1649;SDS011;822;53.670;8.676;2023-02-22T02:40:42;14.10;;;8.50;;
1649;SDS011;822;53.670;8.676;2023-02-22T02:43:14;16.63;;;6.90;;
1649;SDS011;822;53.670;8.676;2023-02-22T02:45:47;11.00;;;6.03;;
1649;SDS011;822;53.670;8.676;2023-02-22T02:48:19;14.63;;;8.13;;
1649;SDS011;822;53.670;8.676;2023-02-22T02:50:50;12.70;;;8.10;;
1649;SDS011;822;53.670;8.676;2023-02-22T02:53:19;21.40;;;8.47;;
1649;SDS011;822;53.670;8.676;2023-02-22T02:55:50;16.77;;;8.37;;
1649;SDS011;822;53.670;8.676;2023-02-22T02:58:18;20.43;;;8.90;;
1649;SDS011;822;53.670;8.676;2023-02-22T03:00:47;14.60;;;6.90;;
1649;SDS011;822;53.670;8.676;2023-02-22T03:09:36;15.07;;;6.83;;
1649;SDS011;822;53.670;8.676;2023-02-22T03:12:15;19.70;;;7.70;;
1649;SDS011;822;53.670;8.676;2023-02-22T03:14:53;13.93;;;6.87;;
1649;SDS011;822;53.670;8.676;2023-02-22T03:17:40;13.73;;;8.03;;
1649;SDS011;822;53.670;8.676;2023-02-22T03:20:17;8.80;;;5.83;;
1649;SDS011;822;53.670;8.676;2023-02-22T03:22:56;12.73;;;7.77;;
1649;SDS011;822;53.670;8.676;2023-02-22T03:25:29;12.73;;;7.70;;
1649;SDS011;822;53.670;8.676;2023-02-22T03:28:02;9.80;;;6.53;;
1649;SDS011;822;53.670;8.676;2023-02-22T03:30:38;13.20;;;7.93;;
1649;SDS011;822;53.670;8.676;2023-02-22T03:33:10;11.03;;;6.27;;
1649;SDS011;822;53.670;8.676;2023-02-22T03:35:43;14.30;;;9.03;;
1649;SDS011;822;53.670;8.676;2023-02-22T03:38:15;13.60;;;7.37;;
1649;SDS011;822;53.670;8.676;2023-02-22T03:40:45;13.20;;;6.47;;
1649;SDS011;822;53.670;8.676;2023-02-22T03:43:17;17.67;;;8.93;;
1649;SDS011;822;53.670;8.676;2023-02-22T03:45:47;17.00;;;8.30;;
1649;SDS011;822;53.670;8.676;2023-02-22T03:48:17;16.37;;;8.17;;
1649;SDS011;822;53.670;8.676;2023-02-22T03:50:49;19.03;;;8.20;;
1649;SDS011;822;53.670;8.676;2023-02-22T03:53:17;17.33;;;8.57;;
1649;SDS011;822;53.670;8.676;2023-02-22T03:55:47;31.13;;;10.30;;
1649;SDS011;822;53.670;8.676;2023-02-22T03:58:16;18.63;;;9.00;;
1649;SDS011;822;53.670;8.676;2023-02-22T04:00:46;17.97;;;8.47;;
1649;SDS011;822;53.670;8.676;2023-02-22T04:03:17;13.60;;;9.13;;
1649;SDS011;822;53.670;8.676;2023-02-22T04:05:45;21.90;;;9.30;;
1649;SDS011;822;53.670;8.676;2023-02-22T04:08:13;18.63;;;10.00;;
1649;SDS011;822;53.670;8.676;2023-02-22T04:10:40;15.83;;;10.20;;
1649;SDS011;822;53.670;8.676;2023-02-22T04:13:08;19.80;;;9.07;;
1649;SDS011;822;53.670;8.676;2023-02-22T04:15:35;14.10;;;7.03;;
1649;SDS011;822;53.670;8.676;2023-02-22T04:18:02;16.60;;;8.27;;
1649;SDS011;822;53.670;8.676;2023-02-22T04:20:30;14.37;;;8.63;;
1649;SDS011;822;53.670;8.676;2023-02-22T04:22:59;16.00;;;9.33;;
1649;SDS011;822;53.670;8.676;2023-02-22T04:25:27;15.57;;;8.00;;
1649;SDS011;822;53.670;8.676;2023-02-22T04:27:55;14.87;;;8.00;;
1649;SDS011;822;53.670;8.676;2023-02-22T04:30:22;14.67;;;8.57;;
1649;SDS011;822;53.670;8.676;2023-02-22T04:32:49;17.63;;;8.80;;
1649;SDS011;822;53.670;8.676;2023-02-22T04:35:16;13.33;;;7.87;;
1649;SDS011;822;53.670;8.676;2023-02-22T04:37:43;15.77;;;6.70;;
1649;SDS011;822;53.670;8.676;2023-02-22T04:40:11;14.20;;;7.03;;
1649;SDS011;822;53.670;8.676;2023-02-22T04:42:39;19.43;;;10.67;;
1649;SDS011;822;53.670;8.676;2023-02-22T04:45:07;14.37;;;8.53;;
1649;SDS011;822;53.670;8.676;2023-02-22T04:47:35;13.90;;;8.27;;
1649;SDS011;822;53.670;8.676;2023-02-22T04:50:03;14.10;;;8.43;;
1649;SDS011;822;53.670;8.676;2023-02-22T04:52:30;17.53;;;8.47;;
1649;SDS011;822;53.670;8.676;2023-02-22T04:54:58;13.97;;;8.70;;
1649;SDS011;822;53.670;8.676;2023-02-22T04:57:25;13.50;;;7.67;;
1649;SDS011;822;53.670;8.676;2023-02-22T04:59:53;20.07;;;8.07;;
1649;SDS011;822;53.670;8.676;2023-02-22T05:02:21;15.00;;;7.37;;
1649;SDS011;822;53.670;8.676;2023-02-22T05:04:48;14.93;;;9.87;;
1649;SDS011;822;53.670;8.676;2023-02-22T05:07:15;15.80;;;8.77;;
1649;SDS011;822;53.670;8.676;2023-02-22T05:09:43;14.07;;;7.47;;
1649;SDS011;822;53.670;8.676;2023-02-22T05:12:10;25.57;;;9.50;;
1649;SDS011;822;53.670;8.676;2023-02-22T05:14:37;15.90;;;8.47;;
1649;SDS011;822;53.670;8.676;2023-02-22T05:17:07;15.90;;;9.50;;
1649;SDS011;822;53.670;8.676;2023-02-22T05:19:34;17.73;;;8.07;;
1649;SDS011;822;53.670;8.676;2023-02-22T05:22:01;14.20;;;8.77;;
1649;SDS011;822;53.670;8.676;2023-02-22T05:24:29;22.40;;;8.67;;
1649;SDS011;822;53.670;8.676;2023-02-22T05:26:57;18.27;;;10.37;;
1649;SDS011;822;53.670;8.676;2023-02-22T05:29:24;17.30;;;8.70;;
1649;SDS011;822;53.670;8.676;2023-02-22T05:31:52;14.67;;;8.00;;
1649;SDS011;822;53.670;8.676;2023-02-22T05:34:20;15.90;;;8.60;;
1649;SDS011;822;53.670;8.676;2023-02-22T05:36:48;20.10;;;9.63;;
1649;SDS011;822;53.670;8.676;2023-02-22T05:39:18;18.83;;;9.73;;
1649;SDS011;822;53.670;8.676;2023-02-22T05:41:45;15.30;;;8.97;;
1649;SDS011;822;53.670;8.676;2023-02-22T05:44:12;18.63;;;9.03;;
1649;SDS011;822;53.670;8.676;2023-02-22T05:46:39;15.37;;;8.27;;
1649;SDS011;822;53.670;8.676;2023-02-22T05:49:06;13.73;;;7.67;;
1649;SDS011;822;53.670;8.676;2023-02-22T05:51:34;20.63;;;8.93;;
1649;SDS011;822;53.670;8.676;2023-02-22T05:54:01;13.10;;;6.90;;
1649;SDS011;822;53.670;8.676;2023-02-22T05:56:29;21.00;;;8.10;;
1649;SDS011;822;53.670;8.676;2023-02-22T05:58:56;21.90;;;9.77;;
1649;SDS011;822;53.670;8.676;2023-02-22T06:01:24;14.63;;;10.07;;
1649;SDS011;822;53.670;8.676;2023-02-22T06:03:51;22.20;;;11.03;;
1649;SDS011;822;53.670;8.676;2023-02-22T06:06:19;10.70;;;7.07;;
1649;SDS011;822;53.670;8.676;2023-02-22T06:08:48;19.67;;;8.70;;
1649;SDS011;822;53.670;8.676;2023-02-22T06:11:15;21.10;;;9.60;;
1649;SDS011;822;53.670;8.676;2023-02-22T06:13:47;22.93;;;8.43;;
1649;SDS011;822;53.670;8.676;2023-02-22T06:16:15;22.90;;;8.83;;
1649;SDS011;822;53.670;8.676;2023-02-22T06:18:42;26.37;;;9.53;;
1649;SDS011;822;53.670;8.676;2023-02-22T06:21:10;19.47;;;10.20;;
1649;SDS011;822;53.670;8.676;2023-02-22T06:23:37;20.07;;;11.03;;
1649;SDS011;822;53.670;8.676;2023-02-22T06:26:05;22.10;;;10.03;;
1649;SDS011;822;53.670;8.676;2023-02-22T06:28:33;19.60;;;10.10;;
1649;SDS011;822;53.670;8.676;2023-02-22T06:31:00;14.87;;;8.90;;
1649;SDS011;822;53.670;8.676;2023-02-22T06:33:27;20.37;;;10.17;;
1649;SDS011;822;53.670;8.676;2023-02-22T06:35:54;17.87;;;8.30;;
1649;SDS011;822;53.670;8.676;2023-02-22T06:38:21;16.60;;;7.97;;
1649;SDS011;822;53.670;8.676;2023-02-22T06:40:49;15.43;;;9.03;;
1649;SDS011;822;53.670;8.676;2023-02-22T06:43:18;16.93;;;8.57;;
1649;SDS011;822;53.670;8.676;2023-02-22T06:45:45;12.70;;;9.70;;
1649;SDS011;822;53.670;8.676;2023-02-22T06:48:12;22.07;;;8.77;;
1649;SDS011;822;53.670;8.676;2023-02-22T06:50:39;20.33;;;10.03;;
1649;SDS011;822;53.670;8.676;2023-02-22T06:53:06;20.17;;;9.53;;
1649;SDS011;822;53.670;8.676;2023-02-22T06:55:34;16.70;;;9.40;;
1649;SDS011;822;53.670;8.676;2023-02-22T06:58:02;22.07;;;9.00;;
1649;SDS011;822;53.670;8.676;2023-02-22T07:00:31;13.77;;;7.63;;
1649;SDS011;822;53.670;8.676;2023-02-22T07:02:58;29.70;;;10.50;;
1649;SDS011;822;53.670;8.676;2023-02-22T07:05:26;16.00;;;8.13;;
1649;SDS011;822;53.670;8.676;2023-02-22T07:07:54;18.67;;;8.37;;
1649;SDS011;822;53.670;8.676;2023-02-22T07:10:28;14.90;;;7.93;;
1649;SDS011;822;53.670;8.676;2023-02-22T07:12:56;21.67;;;9.10;;
1649;SDS011;822;53.670;8.676;2023-02-22T07:15:24;16.70;;;7.30;;
1649;SDS011;822;53.670;8.676;2023-02-22T07:17:55;18.20;;;10.83;;
1649;SDS011;822;53.670;8.676;2023-02-22T07:20:23;21.60;;;9.10;;
1649;SDS011;822;53.670;8.676;2023-02-22T07:22:52;18.10;;;8.93;;
1649;SDS011;822;53.670;8.676;2023-02-22T07:25:19;24.70;;;9.43;;
1649;SDS011;822;53.670;8.676;2023-02-22T07:27:47;19.83;;;10.27;;
1649;SDS011;822;53.670;8.676;2023-02-22T07:30:17;17.97;;;9.30;;
1649;SDS011;822;53.670;8.676;2023-02-22T07:32:45;21.13;;;8.17;;
1649;SDS011;822;53.670;8.676;2023-02-22T07:35:14;18.00;;;8.37;;
1649;SDS011;822;53.670;8.676;2023-02-22T07:37:42;17.47;;;8.87;;
1649;SDS011;822;53.670;8.676;2023-02-22T07:40:09;16.53;;;8.10;;
1649;SDS011;822;53.670;8.676;2023-02-22T07:42:49;13.00;;;7.93;;
1649;SDS011;822;53.670;8.676;2023-02-22T07:45:20;17.23;;;8.10;;
1649;SDS011;822;53.670;8.676;2023-02-22T07:47:48;15.80;;;8.90;;
1649;SDS011;822;53.670;8.676;2023-02-22T07:50:17;16.63;;;7.87;;
1649;SDS011;822;53.670;8.676;2023-02-22T07:52:45;19.70;;;8.73;;
1649;SDS011;822;53.670;8.676;2023-02-22T07:55:13;20.93;;;8.57;;
1649;SDS011;822;53.670;8.676;2023-02-22T07:57:42;18.47;;;8.80;;
1649;SDS011;822;53.670;8.676;2023-02-22T08:00:10;21.77;;;8.93;;
1649;SDS011;822;53.670;8.676;2023-02-22T08:02:39;12.40;;;6.90;;
1649;SDS011;822;53.670;8.676;2023-02-22T08:05:07;13.87;;;6.27;;
1649;SDS011;822;53.670;8.676;2023-02-22T08:07:36;14.50;;;8.83;;
1649;SDS011;822;53.670;8.676;2023-02-22T08:10:04;16.53;;;8.00;;
1649;SDS011;822;53.670;8.676;2023-02-22T08:12:32;16.23;;;7.47;;
1649;SDS011;822;53.670;8.676;2023-02-22T08:15:00;13.13;;;8.80;;
1649;SDS011;822;53.670;8.676;2023-02-22T08:17:27;18.97;;;8.03;;
1649;SDS011;822;53.670;8.676;2023-02-22T08:19:54;18.10;;;7.23;;
1649;SDS011;822;53.670;8.676;2023-02-22T08:22:22;20.57;;;7.80;;
1649;SDS011;822;53.670;8.676;2023-02-22T08:24:50;17.27;;;6.93;;
1649;SDS011;822;53.670;8.676;2023-02-22T08:27:21;18.80;;;7.87;;
1649;SDS011;822;53.670;8.676;2023-02-22T08:29:49;16.73;;;8.30;;
1649;SDS011;822;53.670;8.676;2023-02-22T08:32:16;18.20;;;8.47;;
1649;SDS011;822;53.670;8.676;2023-02-22T08:34:43;15.83;;;6.67;;
1649;SDS011;822;53.670;8.676;2023-02-22T08:37:11;12.97;;;6.93;;
1649;SDS011;822;53.670;8.676;2023-02-22T08:39:39;14.30;;;8.03;;
1649;SDS011;822;53.670;8.676;2023-02-22T08:42:07;12.37;;;6.30;;
1649;SDS011;822;53.670;8.676;2023-02-22T08:44:34;19.10;;;7.27;;
1649;SDS011;822;53.670;8.676;2023-02-22T08:47:02;16.47;;;6.30;;
1649;SDS011;822;53.670;8.676;2023-02-22T08:49:31;10.83;;;6.87;;
1649;SDS011;822;53.670;8.676;2023-02-22T08:51:58;14.70;;;7.60;;
1649;SDS011;822;53.670;8.676;2023-02-22T08:54:25;12.30;;;7.50;;
1649;SDS011;822;53.670;8.676;2023-02-22T08:56:52;14.33;;;6.00;;
1649;SDS011;822;53.670;8.676;2023-02-22T08:59:21;11.93;;;6.90;;
1649;SDS011;822;53.670;8.676;2023-02-22T09:01:48;13.23;;;6.50;;
1649;SDS011;822;53.670;8.676;2023-02-22T09:04:15;13.80;;;7.20;;
1649;SDS011;822;53.670;8.676;2023-02-22T09:06:42;12.57;;;6.77;;
1649;SDS011;822;53.670;8.676;2023-02-22T09:09:12;12.63;;;6.90;;
1649;SDS011;822;53.670;8.676;2023-02-22T09:11:42;15.93;;;7.17;;
1649;SDS011;822;53.670;8.676;2023-02-22T09:14:09;13.90;;;6.10;;
1649;SDS011;822;53.670;8.676;2023-02-22T09:16:39;18.47;;;8.60;;
1649;SDS011;822;53.670;8.676;2023-02-22T09:19:07;15.03;;;7.50;;
1649;SDS011;822;53.670;8.676;2023-02-22T09:21:34;15.53;;;7.00;;
1649;SDS011;822;53.670;8.676;2023-02-22T09:24:01;16.47;;;7.97;;
1649;SDS011;822;53.670;8.676;2023-02-22T09:26:32;17.10;;;6.80;;
1649;SDS011;822;53.670;8.676;2023-02-22T09:29:03;13.00;;;7.30;;
1649;SDS011;822;53.670;8.676;2023-02-22T09:31:34;16.80;;;7.43;;
1649;SDS011;822;53.670;8.676;2023-02-22T09:34:03;11.17;;;5.00;;
1649;SDS011;822;53.670;8.676;2023-02-22T09:36:37;14.00;;;6.23;;
1649;SDS011;822;53.670;8.676;2023-02-22T09:39:06;9.17;;;6.00;;
1649;SDS011;822;53.670;8.676;2023-02-22T09:41:35;9.63;;;5.10;;
1649;SDS011;822;53.670;8.676;2023-02-22T09:44:12;10.13;;;5.43;;
1649;SDS011;822;53.670;8.676;2023-02-22T09:46:45;15.67;;;5.57;;
1649;SDS011;822;53.670;8.676;2023-02-22T09:49:20;9.60;;;5.77;;
1649;SDS011;822;53.670;8.676;2023-02-22T09:51:54;7.67;;;5.70;;
1649;SDS011;822;53.670;8.676;2023-02-22T09:54:27;10.77;;;5.00;;
1649;SDS011;822;53.670;8.676;2023-02-22T09:57:03;15.37;;;7.23;;
1649;SDS011;822;53.670;8.676;2023-02-22T09:59:33;11.13;;;5.43;;
1649;SDS011;822;53.670;8.676;2023-02-22T10:02:13;10.90;;;6.20;;
1649;SDS011;822;53.670;8.676;2023-02-22T10:04:51;11.47;;;5.43;;
1649;SDS011;822;53.670;8.676;2023-02-22T10:07:27;10.40;;;5.43;;
1649;SDS011;822;53.670;8.676;2023-02-22T10:10:00;12.10;;;5.53;;
1649;SDS011;822;53.670;8.676;2023-02-22T10:12:33;7.97;;;4.70;;
1649;SDS011;822;53.670;8.676;2023-02-22T10:21:00;7.80;;;6.97;;
1649;SDS011;822;53.670;8.676;2023-02-22T10:23:35;8.53;;;5.60;;
1649;SDS011;822;53.670;8.676;2023-02-22T10:26:13;6.60;;;4.77;;
1649;SDS011;822;53.670;8.676;2023-02-22T10:28:53;11.27;;;6.13;;
1649;SDS011;822;53.670;8.676;2023-02-22T10:31:26;8.87;;;4.80;;
1649;SDS011;822;53.670;8.676;2023-02-22T10:33:58;11.30;;;5.10;;
1649;SDS011;822;53.670;8.676;2023-02-22T10:36:28;9.73;;;5.13;;
1649;SDS011;822;53.670;8.676;2023-02-22T10:38:57;13.40;;;4.93;;
1649;SDS011;822;53.670;8.676;2023-02-22T10:41:28;11.93;;;5.13;;
1649;SDS011;822;53.670;8.676;2023-02-22T10:44:02;9.37;;;5.97;;
1649;SDS011;822;53.670;8.676;2023-02-22T10:46:30;9.30;;;5.60;;
1649;SDS011;822;53.670;8.676;2023-02-22T10:49:00;12.10;;;5.37;;
1649;SDS011;822;53.670;8.676;2023-02-22T10:51:32;9.30;;;4.53;;
1649;SDS011;822;53.670;8.676;2023-02-22T10:54:06;6.87;;;5.70;;
1649;SDS011;822;53.670;8.676;2023-02-22T10:56:46;8.27;;;4.93;;
1649;SDS011;822;53.670;8.676;2023-02-22T10:59:24;10.27;;;6.47;;
1649;SDS011;822;53.670;8.676;2023-02-22T11:01:53;11.93;;;6.00;;
1649;SDS011;822;53.670;8.676;2023-02-22T11:04:22;7.17;;;5.00;;
1649;SDS011;822;53.670;8.676;2023-02-22T11:07:06;11.40;;;5.70;;
1649;SDS011;822;53.670;8.676;2023-02-22T11:09:45;9.10;;;5.53;;
1649;SDS011;822;53.670;8.676;2023-02-22T11:12:16;10.63;;;5.43;;
1649;SDS011;822;53.670;8.676;2023-02-22T11:14:45;11.90;;;6.80;;
1649;SDS011;822;53.670;8.676;2023-02-22T11:17:16;16.40;;;6.77;;
1649;SDS011;822;53.670;8.676;2023-02-22T11:19:48;11.97;;;6.33;;
1649;SDS011;822;53.670;8.676;2023-02-22T11:22:22;12.50;;;6.63;;
1649;SDS011;822;53.670;8.676;2023-02-22T11:24:54;13.70;;;8.70;;
1649;SDS011;822;53.670;8.676;2023-02-22T11:27:26;20.00;;;7.00;;
1649;SDS011;822;53.670;8.676;2023-02-22T11:30:07;13.93;;;6.80;;
1649;SDS011;822;53.670;8.676;2023-02-22T11:32:43;15.10;;;6.87;;
1649;SDS011;822;53.670;8.676;2023-02-22T11:38:11;12.93;;;6.80;;
1649;SDS011;822;53.670;8.676;2023-02-22T11:40:42;12.40;;;7.10;;
1649;SDS011;822;53.670;8.676;2023-02-22T11:43:13;14.13;;;7.00;;
1649;SDS011;822;53.670;8.676;2023-02-22T11:45:55;14.93;;;8.60;;
1649;SDS011;822;53.670;8.676;2023-02-22T11:48:27;17.57;;;7.90;;
1649;SDS011;822;53.670;8.676;2023-02-22T11:50:58;11.00;;;9.20;;
1649;SDS011;822;53.670;8.676;2023-02-22T11:53:41;10.50;;;7.57;;
1649;SDS011;822;53.670;8.676;2023-02-22T11:56:21;12.43;;;8.20;;
1649;SDS011;822;53.670;8.676;2023-02-22T11:58:52;12.73;;;8.33;;
1649;SDS011;822;53.670;8.676;2023-02-22T12:01:28;12.23;;;7.50;;
1649;SDS011;822;53.670;8.676;2023-02-22T12:10:07;12.37;;;8.27;;
1649;SDS011;822;53.670;8.676;2023-02-22T12:12:57;12.10;;;8.47;;
1649;SDS011;822;53.670;8.676;2023-02-22T12:15:35;13.70;;;8.57;;
1649;SDS011;822;53.670;8.676;2023-02-22T12:18:08;14.77;;;8.37;;
1649;SDS011;822;53.670;8.676;2023-02-22T12:20:43;11.67;;;7.20;;
1649;SDS011;822;53.670;8.676;2023-02-22T12:23:16;12.30;;;8.20;;
1649;SDS011;822;53.670;8.676;2023-02-22T12:25:51;12.30;;;9.10;;
1649;SDS011;822;53.670;8.676;2023-02-22T12:28:25;11.23;;;8.73;;
1649;SDS011;822;53.670;8.676;2023-02-22T12:31:02;11.50;;;9.37;;
1649;SDS011;822;53.670;8.676;2023-02-22T12:33:41;11.50;;;7.17;;
1649;SDS011;822;53.670;8.676;2023-02-22T12:36:17;11.77;;;8.30;;
1649;SDS011;822;53.670;8.676;2023-02-22T12:38:47;10.30;;;6.67;;
1649;SDS011;822;53.670;8.676;2023-02-22T12:41:24;10.80;;;7.43;;
1649;SDS011;822;53.670;8.676;2023-02-22T12:43:57;8.50;;;6.60;;
1649;SDS011;822;53.670;8.676;2023-02-22T12:46:29;8.43;;;6.70;;
1649;SDS011;822;53.670;8.676;2023-02-22T12:49:04;10.77;;;7.80;;
1649;SDS011;822;53.670;8.676;2023-02-22T12:51:41;8.50;;;6.27;;
1649;SDS011;822;53.670;8.676;2023-02-22T12:54:15;9.17;;;6.90;;
1649;SDS011;822;53.670;8.676;2023-02-22T12:56:50;9.07;;;7.07;;
1649;SDS011;822;53.670;8.676;2023-02-22T12:59:21;8.83;;;7.23;;
1649;SDS011;822;53.670;8.676;2023-02-22T13:01:56;9.83;;;6.80;;
1649;SDS011;822;53.670;8.676;2023-02-22T13:04:28;9.83;;;7.77;;
1649;SDS011;822;53.670;8.676;2023-02-22T13:09:59;10.57;;;7.20;;
1649;SDS011;822;53.670;8.676;2023-02-22T13:12:39;8.73;;;6.80;;
1649;SDS011;822;53.670;8.676;2023-02-22T13:15:17;9.13;;;6.40;;
1649;SDS011;822;53.670;8.676;2023-02-22T13:17:57;10.00;;;6.90;;
1649;SDS011;822;53.670;8.676;2023-02-22T13:20:35;9.43;;;6.60;;
1649;SDS011;822;53.670;8.676;2023-02-22T13:23:08;9.13;;;7.03;;
1649;SDS011;822;53.670;8.676;2023-02-22T13:25:40;10.03;;;6.40;;
1649;SDS011;822;53.670;8.676;2023-02-22T13:28:17;9.43;;;6.40;;
1649;SDS011;822;53.670;8.676;2023-02-22T13:30:52;9.47;;;7.57;;
1649;SDS011;822;53.670;8.676;2023-02-22T13:33:41;12.00;;;8.20;;
1649;SDS011;822;53.670;8.676;2023-02-22T13:36:29;10.23;;;7.23;;
1649;SDS011;822;53.670;8.676;2023-02-22T13:44:59;11.87;;;7.07;;
1649;SDS011;822;53.670;8.676;2023-02-22T13:47:55;10.77;;;7.33;;
1649;SDS011;822;53.670;8.676;2023-02-22T13:50:34;10.70;;;7.90;;
1649;SDS011;822;53.670;8.676;2023-02-22T13:53:13;10.53;;;7.07;;
1649;SDS011;822;53.670;8.676;2023-02-22T13:55:46;11.83;;;7.73;;
1649;SDS011;822;53.670;8.676;2023-02-22T13:58:20;8.60;;;6.37;;
1649;SDS011;822;53.670;8.676;2023-02-22T14:00:51;9.30;;;6.13;;
1649;SDS011;822;53.670;8.676;2023-02-22T14:03:30;11.70;;;7.63;;
1649;SDS011;822;53.670;8.676;2023-02-22T14:06:07;10.90;;;7.00;;
1649;SDS011;822;53.670;8.676;2023-02-22T14:08:45;8.47;;;6.83;;
1649;SDS011;822;53.670;8.676;2023-02-22T14:14:11;9.17;;;6.37;;
1649;SDS011;822;53.670;8.676;2023-02-22T14:16:42;9.50;;;7.10;;
1649;SDS011;822;53.670;8.676;2023-02-22T14:19:14;7.10;;;6.40;;
1649;SDS011;822;53.670;8.676;2023-02-22T14:21:53;8.47;;;6.40;;
1649;SDS011;822;53.670;8.676;2023-02-22T14:24:22;8.93;;;5.63;;
1649;SDS011;822;53.670;8.676;2023-02-22T14:26:53;8.13;;;6.03;;
1649;SDS011;822;53.670;8.676;2023-02-22T14:29:23;9.17;;;6.47;;
1649;SDS011;822;53.670;8.676;2023-02-22T14:32:00;8.00;;;5.90;;
1649;SDS011;822;53.670;8.676;2023-02-22T14:34:40;8.47;;;6.43;;
1649;SDS011;822;53.670;8.676;2023-02-22T14:37:11;12.70;;;7.53;;
1649;SDS011;822;53.670;8.676;2023-02-22T14:39:42;9.90;;;7.43;;
1649;SDS011;822;53.670;8.676;2023-02-22T14:42:13;7.70;;;5.93;;
1649;SDS011;822;53.670;8.676;2023-02-22T14:44:48;7.27;;;6.03;;
1649;SDS011;822;53.670;8.676;2023-02-22T14:47:21;8.97;;;7.50;;
1649;SDS011;822;53.670;8.676;2023-02-22T14:49:55;8.03;;;6.43;;
1649;SDS011;822;53.670;8.676;2023-02-22T14:52:29;9.97;;;6.87;;
1649;SDS011;822;53.670;8.676;2023-02-22T14:55:05;7.13;;;5.37;;
1649;SDS011;822;53.670;8.676;2023-02-22T14:57:45;6.80;;;5.80;;
1649;SDS011;822;53.670;8.676;2023-02-22T15:00:27;8.30;;;7.07;;
1649;SDS011;822;53.670;8.676;2023-02-22T15:03:10;12.93;;;6.40;;
1649;SDS011;822;53.670;8.676;2023-02-22T15:05:44;11.00;;;6.27;;
1649;SDS011;822;53.670;8.676;2023-02-22T15:08:14;7.27;;;5.13;;
1649;SDS011;822;53.670;8.676;2023-02-22T15:10:43;8.20;;;5.77;;
1649;SDS011;822;53.670;8.676;2023-02-22T15:13:13;6.67;;;5.93;;
1649;SDS011;822;53.670;8.676;2023-02-22T15:15:43;8.13;;;6.10;;
1649;SDS011;822;53.670;8.676;2023-02-22T15:18:16;6.70;;;5.77;;
1649;SDS011;822;53.670;8.676;2023-02-22T15:20:50;5.87;;;4.80;;
1649;SDS011;822;53.670;8.676;2023-02-22T15:23:26;6.93;;;5.43;;
1649;SDS011;822;53.670;8.676;2023-02-22T15:25:57;8.57;;;5.60;;
1649;SDS011;822;53.670;8.676;2023-02-22T15:28:26;7.63;;;5.27;;
1649;SDS011;822;53.670;8.676;2023-02-22T15:33:42;7.70;;;4.97;;
1649;SDS011;822;53.670;8.676;2023-02-22T15:36:12;5.83;;;4.77;;
1649;SDS011;822;53.670;8.676;2023-02-22T15:38:46;13.40;;;6.23;;
1649;SDS011;822;53.670;8.676;2023-02-22T15:41:22;8.23;;;5.70;;
1649;SDS011;822;53.670;8.676;2023-02-22T15:43:57;7.30;;;5.03;;
1649;SDS011;822;53.670;8.676;2023-02-22T15:46:26;6.47;;;4.87;;
1649;SDS011;822;53.670;8.676;2023-02-22T15:49:05;5.70;;;4.43;;
1649;SDS011;822;53.670;8.676;2023-02-22T15:51:33;6.90;;;4.90;;
1649;SDS011;822;53.670;8.676;2023-02-22T15:54:02;5.77;;;4.53;;
1649;SDS011;822;53.670;8.676;2023-02-22T15:56:33;6.50;;;4.90;;
1649;SDS011;822;53.670;8.676;2023-02-22T15:59:02;5.77;;;4.00;;
1649;SDS011;822;53.670;8.676;2023-02-22T16:01:36;10.17;;;6.07;;
1649;SDS011;822;53.670;8.676;2023-02-22T16:04:14;5.10;;;4.10;;
1649;SDS011;822;53.670;8.676;2023-02-22T16:06:42;7.97;;;4.90;;
1649;SDS011;822;53.670;8.676;2023-02-22T16:09:10;8.90;;;5.67;;
1649;SDS011;822;53.670;8.676;2023-02-22T16:11:40;11.00;;;4.97;;
1649;SDS011;822;53.670;8.676;2023-02-22T16:14:22;7.53;;;4.57;;
1649;SDS011;822;53.670;8.676;2023-02-22T16:17:08;6.00;;;4.23;;
1649;SDS011;822;53.670;8.676;2023-02-22T16:19:39;4.73;;;4.27;;
1649;SDS011;822;53.670;8.676;2023-02-22T16:22:21;5.10;;;4.57;;
1649;SDS011;822;53.670;8.676;2023-02-22T16:24:52;7.77;;;6.70;;
1649;SDS011;822;53.670;8.676;2023-02-22T16:27:20;6.60;;;4.63;;